createdAt,value
2019-02-25T00:02:08.314Z,70.86
2019-02-25T00:04:34.986Z,71.16
2019-02-25T00:07:01.643Z,71.29
2019-02-25T00:53:21.769Z,71.25
2019-02-25T00:55:48.885Z,72.30
2019-02-25T00:58:17.294Z,71.86
2019-02-25T01:00:46.399Z,72.11
2019-02-25T01:03:13.009Z,71.94
2019-02-25T01:05:39.916Z,71.70
2019-02-25T01:08:07.827Z,72.19
2019-02-25T01:10:34.463Z,72.23
2019-02-25T01:13:04.186Z,72.63
2019-02-25T01:15:30.959Z,72.67
2019-02-25T01:18:00.435Z,72.78
2019-02-25T01:20:27.270Z,73.13
2019-02-25T01:22:53.908Z,73.26
2019-02-25T01:25:23.460Z,73.34
2019-02-25T01:27:49.940Z,72.80
2019-02-25T01:30:17.278Z,73.19
2019-02-25T01:32:43.919Z,72.75
2019-02-25T01:35:10.842Z,72.95
2019-02-25T01:37:37.484Z,73.86
2019-02-25T01:40:07.723Z,73.33
2019-02-25T01:42:34.694Z,73.38
2019-02-25T01:45:07.027Z,73.02
2019-02-25T01:47:35.198Z,72.97
2019-02-25T01:50:02.322Z,72.96
2019-02-25T01:52:28.854Z,73.12
2019-02-25T01:54:55.686Z,72.89
2019-02-25T01:57:22.352Z,73.37
2019-02-25T01:59:48.985Z,73.35
2019-02-25T02:02:15.976Z,73.58
2019-02-25T02:04:44.452Z,73.76
2019-02-25T02:07:11.240Z,73.75
2019-02-25T02:09:38.152Z,74.04
2019-02-25T02:12:04.752Z,73.72
2019-02-25T02:14:34.122Z,73.46
2019-02-25T02:17:00.672Z,73.48
2019-02-25T02:19:27.332Z,73.46
2019-02-25T02:21:54.031Z,73.34
2019-02-25T02:24:20.641Z,73.45
2019-02-25T02:26:48.036Z,73.66
2019-02-25T02:29:14.714Z,73.26
2019-02-25T02:31:41.439Z,73.26
2019-02-25T02:34:08.021Z,73.38
2019-02-25T02:36:34.709Z,73.39
2019-02-25T02:39:01.358Z,73.33
2019-02-25T02:41:33.491Z,73.59
2019-02-25T02:44:01.447Z,73.67
2019-02-25T02:46:56.185Z,74.00
2019-02-25T02:49:22.767Z,73.75
2019-02-25T02:51:49.470Z,74.10
2019-02-25T02:54:16.176Z,74.24
2019-02-25T02:56:42.828Z,73.80
2019-02-25T02:59:09.476Z,73.77
2019-02-25T03:01:36.315Z,73.99
2019-02-25T03:04:03.078Z,73.64
2019-02-25T03:06:33.077Z,74.02
2019-02-25T03:08:59.624Z,73.85
2019-02-25T03:11:26.300Z,73.70
2019-02-25T03:13:52.940Z,74.02
2019-02-25T03:16:19.650Z,73.88
2019-02-25T03:18:47.641Z,73.94
2019-02-25T03:21:14.312Z,73.97
2019-02-25T03:23:43.876Z,73.90
2019-02-25T03:26:10.693Z,74.04
2019-02-25T03:28:37.223Z,73.72
2019-02-25T03:31:05.193Z,73.94
2019-02-25T03:33:32.072Z,73.84
2019-02-25T03:36:01.372Z,73.85
2019-02-25T03:38:28.174Z,74.13
2019-02-25T03:40:54.800Z,74.30
2019-02-25T03:43:21.462Z,74.22
2019-02-25T03:45:48.252Z,73.78
2019-02-25T03:48:16.078Z,74.30
2019-02-25T03:50:42.624Z,74.85
2019-02-25T03:53:09.332Z,74.97
2019-02-25T03:55:35.963Z,75.01
2019-02-25T03:58:02.615Z,75.02
2019-02-25T04:00:29.252Z,74.76
2019-02-25T04:02:58.810Z,75.06
2019-02-25T04:05:25.722Z,75.01
2019-02-25T04:07:52.450Z,74.84
2019-02-25T04:10:19.457Z,74.54
2019-02-25T04:12:46.444Z,75.21
2019-02-25T04:15:19.204Z,75.05
2019-02-25T04:17:51.484Z,75.08
2019-02-25T04:20:18.114Z,75.27
2019-02-25T04:22:46.705Z,74.95
2019-02-25T04:25:19.182Z,74.82
2019-02-25T04:27:46.218Z,74.98
2019-02-25T04:30:13.807Z,75.23
2019-02-25T04:32:43.399Z,74.90
2019-02-25T04:35:10.747Z,74.83
2019-02-25T04:37:37.472Z,74.80
2019-02-25T04:40:05.199Z,74.75
2019-02-25T04:42:35.213Z,74.71
2019-02-25T04:45:02.041Z,74.62
2019-02-25T04:47:28.713Z,74.71
2019-02-25T04:49:55.390Z,74.61
2019-02-25T04:52:22.137Z,74.65
2019-02-25T04:54:48.894Z,74.44
2019-02-25T04:57:15.938Z,74.46
2019-02-25T04:59:42.667Z,74.50
2019-02-25T05:02:11.226Z,74.46
2019-02-25T05:04:38.140Z,74.49
2019-02-25T05:07:04.757Z,74.30
2019-02-25T05:09:31.663Z,74.21
2019-02-25T05:11:58.317Z,74.19
2019-02-25T05:14:25.022Z,74.21
2019-02-25T05:16:55.146Z,74.10
2019-02-25T05:19:25.106Z,73.96
2019-02-25T05:21:56.792Z,73.93
2019-02-25T05:24:23.750Z,73.81
2019-02-25T05:26:51.670Z,73.59
2019-02-25T05:29:18.452Z,73.46
2019-02-25T05:31:45.068Z,73.48
2019-02-25T05:34:12.086Z,73.61
2019-02-25T05:36:39.035Z,73.54
2019-02-25T05:39:06.153Z,73.51
2019-02-25T05:41:34.465Z,73.37
2019-02-25T05:44:02.681Z,73.12
2019-02-25T05:46:29.313Z,72.88
2019-02-25T05:48:56.128Z,72.91
2019-02-25T05:51:22.752Z,72.78
2019-02-25T05:53:49.671Z,72.62
2019-02-25T05:56:16.478Z,72.49
2019-02-25T05:58:45.273Z,72.59
2019-02-25T06:01:12.049Z,72.43
2019-02-25T06:03:38.739Z,72.31
2019-02-25T06:06:07.908Z,72.66
2019-02-25T06:08:34.652Z,72.75
2019-02-25T06:11:01.485Z,73.10
2019-02-25T06:13:28.128Z,72.87
2019-02-25T06:15:55.022Z,73.07
2019-02-25T06:18:21.847Z,73.23
2019-02-25T06:20:48.649Z,73.45
2019-02-25T06:23:17.785Z,73.52
2019-02-25T06:25:44.355Z,73.41
2019-02-25T06:28:11.026Z,73.42
2019-02-25T06:30:37.972Z,73.41
2019-02-25T06:33:04.593Z,73.31
2019-02-25T06:35:31.621Z,73.04
2019-02-25T06:37:58.358Z,72.82
2019-02-25T06:40:25.065Z,72.70
2019-02-25T06:42:51.703Z,72.43
2019-02-25T06:45:18.504Z,72.10
2019-02-25T06:47:45.382Z,71.67
2019-02-25T06:50:12.202Z,71.53
2019-02-25T06:52:38.928Z,71.23
2019-02-25T06:55:06.541Z,70.63
2019-02-25T06:57:33.487Z,70.71
2019-02-25T07:00:00.365Z,69.50
2019-02-25T07:02:27.042Z,69.12
2019-02-25T07:05:08.274Z,68.06
2019-02-25T07:07:56.386Z,68.34
2019-02-25T07:10:39.495Z,68.09
2019-02-25T07:13:34.826Z,67.64
2019-02-25T07:16:11.679Z,67.52
2019-02-25T07:18:45.687Z,67.04
2019-02-25T07:21:37.980Z,66.54
2019-02-25T07:24:24.252Z,64.67
2019-02-25T07:26:58.135Z,63.60
2019-02-25T07:29:34.099Z,63.94
2019-02-25T07:32:32.719Z,63.28
2019-02-25T07:35:14.670Z,62.91
2019-02-25T07:38:06.635Z,62.54
2019-02-25T07:40:51.490Z,62.82
2019-02-25T07:43:34.465Z,61.51
2019-02-25T07:46:09.153Z,61.92
2019-02-25T07:48:54.027Z,59.83
2019-02-25T07:51:31.607Z,59.38
2019-02-25T07:54:27.312Z,58.84
2019-02-25T07:57:03.331Z,58.78
2019-02-25T07:59:48.179Z,58.62
2019-02-25T08:02:37.498Z,58.25
2019-02-25T08:05:10.669Z,57.83
2019-02-25T08:08:09.210Z,57.80
2019-02-25T08:11:04.172Z,57.72
2019-02-25T08:13:41.340Z,57.71
2019-02-25T08:16:25.983Z,56.90
2019-02-25T08:19:30.792Z,56.61
2019-02-25T08:22:13.424Z,55.82
2019-02-25T08:25:08.718Z,55.13
2019-02-25T08:27:54.191Z,54.57
2019-02-25T08:30:40.488Z,55.25
2019-02-25T08:33:29.770Z,54.81
2019-02-25T08:37:02.286Z,53.63
2019-02-25T08:39:39.074Z,53.10
2019-02-25T08:42:10.366Z,52.68
2019-02-25T08:44:48.150Z,51.81
2019-02-25T08:47:25.221Z,51.31
2019-02-25T08:49:57.270Z,48.05
2019-02-25T08:52:23.964Z,45.66
2019-02-25T08:54:50.627Z,43.64
2019-02-25T08:57:17.466Z,41.72
2019-02-25T08:59:44.283Z,37.27
2019-02-25T09:02:11.255Z,33.58
2019-02-25T09:04:38.067Z,31.25
2019-02-25T09:07:04.736Z,28.35
2019-02-25T09:09:31.423Z,26.75
2019-02-25T09:11:58.134Z,26.40
2019-02-25T09:14:24.886Z,26.89
2019-02-25T09:16:53.185Z,27.65
2019-02-25T09:19:19.780Z,28.74
2019-02-25T09:21:46.487Z,29.22
2019-02-25T09:24:13.277Z,27.54
2019-02-25T09:26:39.955Z,25.15
2019-02-25T09:29:06.616Z,24.29
2019-02-25T09:31:34.378Z,23.31
2019-02-25T09:34:01.144Z,23.15
2019-02-25T09:36:27.899Z,20.88
2019-02-25T09:38:56.622Z,20.71
2019-02-25T09:41:29.866Z,20.44
2019-02-25T09:43:52.307Z,19.59
2019-02-25T09:46:19.049Z,19.70
2019-02-25T09:48:45.816Z,19.92
2019-02-25T09:51:12.478Z,20.67
2019-02-25T09:53:39.235Z,22.03
2019-02-25T09:56:06.179Z,21.69
2019-02-25T09:58:32.838Z,21.19
2019-02-25T10:00:59.629Z,21.49
2019-02-25T10:03:26.283Z,22.73
2019-02-25T10:05:52.969Z,21.34
2019-02-25T10:08:19.827Z,21.07
2019-02-25T10:10:46.489Z,19.39
2019-02-25T10:13:13.127Z,18.81
2019-02-25T10:15:40.867Z,18.12
2019-02-25T10:18:07.659Z,17.56
2019-02-25T10:20:34.321Z,17.56
2019-02-25T10:23:00.979Z,17.41
2019-02-25T10:25:27.665Z,16.90
2019-02-25T10:27:54.435Z,16.32
2019-02-25T10:30:21.184Z,16.34
2019-02-25T10:32:47.817Z,16.00
2019-02-25T10:35:14.478Z,17.12
2019-02-25T10:37:42.061Z,17.27
2019-02-25T10:40:10.980Z,18.00
2019-02-25T10:42:37.810Z,18.86
2019-02-25T10:45:07.350Z,18.44
2019-02-25T10:47:34.376Z,17.70
2019-02-25T10:50:03.230Z,18.82
2019-02-25T10:52:30.901Z,18.18
2019-02-25T10:54:58.295Z,17.82
2019-02-25T10:57:27.143Z,17.14
2019-02-25T10:59:54.008Z,17.21
2019-02-25T11:02:20.686Z,16.26
2019-02-25T11:04:49.255Z,16.39
2019-02-25T11:07:18.819Z,16.49
2019-02-25T11:10:01.512Z,16.01
2019-02-25T11:12:32.067Z,15.65
2019-02-25T11:14:58.562Z,16.07
2019-02-25T11:17:25.365Z,15.58
2019-02-25T11:19:52.165Z,15.44
2019-02-25T11:22:18.861Z,15.86
2019-02-25T11:24:48.555Z,15.42
2019-02-25T11:27:14.258Z,15.77
2019-02-25T11:29:42.516Z,14.99
2019-02-25T11:32:09.580Z,15.02
2019-02-25T11:34:37.688Z,15.20
2019-02-25T11:37:04.948Z,15.60
2019-02-25T11:39:32.702Z,16.05
2019-02-25T11:42:00.413Z,16.78
2019-02-25T11:44:31.077Z,17.50
2019-02-25T11:46:56.692Z,16.21
2019-02-25T11:49:23.409Z,16.52
2019-02-25T11:51:50.137Z,17.04
2019-02-25T11:54:17.018Z,17.50
2019-02-25T11:56:43.898Z,16.84
2019-02-25T11:59:10.533Z,16.49
2019-02-25T12:01:37.338Z,17.22
2019-02-25T12:04:03.972Z,18.17
2019-02-25T12:06:30.711Z,18.60
2019-02-25T12:08:57.477Z,18.80
2019-02-25T12:11:24.169Z,19.25
2019-02-25T12:13:50.892Z,20.07
2019-02-25T12:16:17.732Z,20.38
2019-02-25T12:18:44.540Z,20.23
2019-02-25T12:21:15.342Z,22.34
2019-02-25T12:23:42.108Z,22.21
2019-02-25T12:26:08.895Z,23.95
2019-02-25T12:28:36.657Z,25.44
2019-02-25T12:31:03.614Z,26.65
2019-02-25T12:33:30.927Z,26.43
2019-02-25T12:35:58.595Z,28.16
2019-02-25T12:38:25.449Z,29.19
2019-02-25T12:40:52.208Z,28.84
2019-02-25T12:43:18.993Z,28.82
2019-02-25T12:45:45.632Z,28.40
2019-02-25T12:48:12.355Z,29.62
2019-02-25T12:50:39.025Z,29.36
2019-02-25T12:53:05.712Z,29.56
2019-02-25T12:55:32.368Z,30.26
2019-02-25T12:57:59.017Z,31.51
2019-02-25T13:00:26.648Z,31.91
2019-02-25T13:02:53.278Z,32.73
2019-02-25T13:05:19.970Z,33.13
2019-02-25T13:07:51.106Z,32.94
2019-02-25T13:10:18.033Z,32.89
2019-02-25T13:12:44.753Z,33.16
2019-02-25T13:15:13.598Z,32.71
2019-02-25T13:17:40.524Z,33.32
2019-02-25T13:20:10.821Z,32.87
2019-02-25T13:22:37.588Z,33.12
2019-02-25T13:25:07.883Z,33.66
2019-02-25T13:27:34.196Z,34.00
2019-02-25T13:30:01.096Z,34.37
2019-02-25T13:32:29.336Z,34.48
2019-02-25T13:34:55.905Z,34.18
2019-02-25T13:37:22.584Z,33.98
2019-02-25T13:39:49.410Z,35.71
2019-02-25T13:42:16.162Z,35.48
2019-02-25T13:44:42.915Z,34.77
2019-02-25T13:47:09.500Z,33.84
2019-02-25T13:49:36.235Z,35.48
2019-02-25T13:52:02.971Z,35.12
2019-02-25T13:54:30.071Z,34.82
2019-02-25T13:56:56.751Z,34.13
2019-02-25T13:59:23.447Z,35.50
2019-02-25T14:01:50.140Z,35.23
2019-02-25T14:04:17.380Z,35.65
2019-02-25T14:06:44.207Z,35.38
2019-02-25T14:09:11.154Z,37.01
2019-02-25T14:11:37.830Z,36.96
2019-02-25T14:14:04.472Z,36.24
2019-02-25T14:16:31.051Z,38.03
2019-02-25T14:18:57.740Z,36.94
2019-02-25T14:21:24.424Z,37.74
2019-02-25T14:23:51.090Z,37.50
2019-02-25T14:26:18.940Z,37.59
2019-02-25T14:28:46.729Z,37.62
2019-02-25T14:31:14.538Z,38.04
2019-02-25T14:33:41.421Z,37.96
2019-02-25T14:36:10.631Z,38.34
2019-02-25T14:38:37.357Z,38.12
2019-02-25T14:41:06.610Z,37.90
2019-02-25T14:43:36.688Z,37.70
2019-02-25T14:46:01.626Z,37.80
2019-02-25T14:48:30.396Z,39.22
2019-02-25T14:50:58.442Z,38.69
2019-02-25T14:53:25.197Z,38.91
2019-02-25T14:55:53.169Z,37.68
2019-02-25T14:58:20.501Z,38.04
2019-02-25T15:00:47.163Z,38.92
2019-02-25T15:03:13.804Z,37.57
2019-02-25T15:05:40.917Z,38.28
2019-02-25T15:08:08.573Z,38.89
2019-02-25T15:10:36.319Z,38.54
2019-02-25T15:13:06.099Z,40.94
2019-02-25T15:15:34.750Z,39.26
2019-02-25T15:18:01.380Z,40.83
2019-02-25T15:20:28.893Z,40.86
2019-02-25T15:22:55.680Z,41.06
2019-02-25T15:25:22.564Z,41.48
2019-02-25T15:27:49.417Z,41.59
2019-02-25T15:30:20.617Z,41.98
2019-02-25T15:32:55.574Z,42.22
2019-02-25T15:35:16.841Z,42.81
2019-02-25T15:37:44.815Z,43.84
2019-02-25T15:40:13.967Z,44.71
2019-02-25T15:42:41.240Z,44.57
2019-02-25T15:45:09.574Z,44.88
2019-02-25T15:47:36.629Z,44.55
2019-02-25T15:50:04.469Z,45.35
2019-02-25T15:52:39.734Z,45.97
2019-02-25T15:55:01.951Z,46.10
2019-02-25T15:57:30.747Z,47.01
2019-02-25T16:00:04.130Z,47.74
2019-02-25T16:02:30.946Z,47.74
2019-02-25T16:04:58.648Z,48.13
2019-02-25T16:07:28.284Z,48.61
2019-02-25T16:09:57.105Z,49.34
2019-02-25T16:12:25.423Z,49.52
2019-02-25T16:14:53.126Z,50.26
2019-02-25T16:17:22.293Z,51.16
2019-02-25T16:19:53.121Z,51.29
2019-02-25T16:22:17.342Z,51.29
2019-02-25T16:24:44.033Z,51.94
2019-02-25T16:27:11.838Z,51.98
2019-02-25T16:29:38.480Z,51.98
2019-02-25T16:32:05.019Z,52.60
2019-02-25T16:34:32.526Z,52.69
2019-02-25T16:37:02.493Z,53.17
2019-02-25T16:39:29.308Z,53.64
2019-02-25T16:41:55.984Z,54.53
2019-02-25T16:44:22.568Z,54.21
2019-02-25T16:46:50.742Z,54.67
2019-02-25T16:49:17.588Z,55.66
2019-02-25T16:51:44.244Z,55.10
2019-02-25T16:54:13.369Z,55.78
2019-02-25T16:56:39.707Z,56.80
2019-02-25T16:59:10.916Z,56.47
2019-02-25T17:01:37.516Z,57.13
2019-02-25T17:04:03.748Z,56.84
2019-02-25T17:06:32.085Z,57.54
2019-02-25T17:08:58.979Z,57.80
2019-02-25T17:11:25.658Z,57.52
2019-02-25T17:13:53.093Z,57.89
2019-02-25T17:16:23.496Z,58.11
2019-02-25T17:18:49.240Z,58.96
2019-02-25T17:21:15.946Z,59.18
2019-02-25T17:23:42.663Z,59.50
2019-02-25T17:26:12.442Z,60.13
2019-02-25T17:28:38.894Z,60.62
2019-02-25T17:31:08.890Z,60.85
2019-02-25T17:33:37.438Z,60.75
2019-02-25T17:36:05.826Z,61.17
2019-02-25T17:38:33.797Z,61.72
2019-02-25T17:41:01.269Z,62.30
2019-02-25T17:43:29.461Z,62.42
2019-02-25T17:45:58.139Z,62.30
2019-02-25T17:48:24.883Z,62.13
2019-02-25T17:50:53.473Z,62.18
2019-02-25T17:53:22.349Z,62.15
2019-02-25T17:55:51.020Z,62.36
2019-02-25T17:58:19.306Z,62.40
2019-02-25T18:00:46.619Z,62.62
2019-02-25T18:03:14.969Z,63.22
2019-02-25T18:05:43.231Z,64.07
2019-02-25T18:08:13.351Z,64.30
2019-02-25T18:10:39.683Z,64.16
2019-02-25T18:13:08.647Z,64.42
2019-02-25T18:15:35.267Z,64.86
2019-02-25T18:18:01.971Z,65.54
2019-02-25T18:20:31.339Z,65.53
2019-02-25T18:22:58.383Z,65.48
2019-02-25T18:25:25.144Z,65.63
2019-02-25T18:27:51.961Z,66.51
2019-02-25T18:30:20.082Z,66.46
2019-02-25T18:32:47.075Z,66.77
2019-02-25T18:35:16.360Z,67.51
2019-02-25T18:37:45.569Z,66.87
2019-02-25T18:40:13.970Z,67.18
2019-02-25T18:42:43.229Z,67.40
2019-02-25T18:45:11.173Z,68.04
2019-02-25T18:47:40.134Z,67.97
2019-02-25T18:50:17.233Z,68.15
2019-02-25T18:52:43.713Z,68.02
2019-02-25T18:55:11.283Z,68.60
2019-02-25T18:57:38.231Z,68.62
2019-02-25T19:00:06.746Z,69.13
2019-02-25T19:02:34.224Z,69.29
2019-02-25T19:05:04.346Z,68.77
2019-02-25T19:07:31.999Z,69.27
2019-02-25T19:09:59.627Z,69.05
2019-02-25T19:12:26.297Z,69.22
2019-02-25T19:14:55.236Z,69.55
2019-02-25T19:17:23.239Z,69.94
2019-02-25T19:19:51.659Z,69.55
2019-02-25T19:22:19.526Z,69.85
2019-02-25T19:24:47.279Z,70.18
2019-02-25T19:27:15.002Z,70.12
2019-02-25T19:29:45.068Z,70.33
2019-02-25T19:32:10.476Z,70.30
2019-02-25T19:34:39.205Z,70.28
2019-02-25T19:37:06.995Z,70.33
2019-02-25T19:39:35.391Z,70.76
2019-02-25T19:42:03.480Z,70.58
2019-02-25T19:44:31.900Z,70.75
2019-02-25T19:46:58.675Z,71.14
2019-02-25T19:49:25.326Z,71.93
2019-02-25T19:51:52.733Z,71.45
2019-02-25T19:54:19.553Z,72.20
2019-02-25T19:56:48.206Z,73.00
2019-02-25T19:59:14.992Z,72.37
2019-02-25T20:01:41.780Z,73.30
2019-02-25T20:04:09.181Z,74.88
2019-02-25T20:06:37.013Z,75.01
2019-02-25T20:09:07.501Z,73.85
2019-02-25T20:11:35.475Z,73.60
2019-02-25T20:14:02.374Z,73.62
2019-02-25T20:16:30.394Z,74.03
2019-02-25T20:19:00.304Z,73.61
2019-02-25T20:21:30.505Z,73.76
2019-02-25T20:23:57.091Z,74.13
2019-02-25T20:26:24.781Z,75.04
2019-02-25T20:28:52.419Z,74.96
2019-02-25T20:31:19.183Z,74.85
2019-02-25T20:33:45.721Z,75.00
2019-02-25T20:36:12.512Z,75.42
2019-02-25T20:38:40.366Z,75.56
2019-02-25T20:41:07.300Z,75.65
2019-02-25T20:43:34.035Z,75.61
2019-02-25T20:46:03.465Z,75.97
2019-02-25T20:48:29.818Z,76.17
2019-02-25T20:50:59.683Z,76.33
2019-02-25T20:53:27.275Z,76.03
2019-02-25T20:55:54.648Z,76.07
2019-02-25T20:58:23.275Z,76.23
2019-02-25T21:00:50.918Z,75.94
2019-02-25T21:03:18.954Z,75.94
2019-02-25T21:05:46.439Z,75.71
2019-02-25T21:08:16.349Z,76.17
2019-02-25T21:10:48.051Z,76.64
2019-02-25T21:13:15.787Z,76.62
2019-02-25T21:15:43.453Z,77.03
2019-02-25T21:18:11.099Z,77.85
2019-02-25T21:20:38.872Z,77.73
2019-02-25T21:23:08.383Z,77.83
2019-02-25T21:25:36.751Z,77.14
2019-02-25T21:28:05.082Z,77.55
2019-02-25T21:30:32.713Z,78.05
2019-02-25T21:33:01.920Z,77.94
2019-02-25T21:35:30.179Z,78.67
2019-02-25T21:37:57.195Z,79.31
2019-02-25T21:40:26.509Z,79.82
2019-02-25T21:42:53.937Z,79.54
2019-02-25T21:45:22.329Z,79.31
2019-02-25T21:47:52.166Z,79.20
2019-02-25T21:50:18.703Z,79.25
2019-02-25T21:52:46.152Z,79.41
2019-02-25T21:55:14.789Z,79.55
2019-02-25T21:57:41.560Z,79.64
2019-02-25T22:00:10.765Z,80.14
2019-02-25T22:02:41.044Z,80.22
2019-02-25T22:05:14.366Z,80.31
2019-02-25T22:07:42.649Z,80.45
2019-02-25T22:10:10.728Z,80.59
2019-02-25T22:12:39.539Z,80.59
2019-02-25T22:15:10.526Z,81.32
2019-02-25T22:17:38.602Z,81.39
2019-02-25T22:20:09.817Z,81.03
2019-02-25T22:22:38.806Z,81.26
2019-02-25T22:25:08.498Z,80.98
2019-02-25T22:27:37.017Z,80.89
2019-02-25T22:30:06.846Z,81.49
2019-02-25T22:32:36.021Z,81.15
2019-02-25T22:35:03.160Z,81.32
2019-02-25T22:37:30.968Z,81.53
2019-02-25T22:39:57.829Z,81.59
2019-02-25T22:42:25.320Z,81.34
2019-02-25T22:44:56.062Z,81.30
2019-02-25T22:47:23.126Z,81.24
2019-02-25T22:49:52.045Z,81.16
2019-02-25T22:52:21.883Z,80.96
2019-02-25T22:54:47.984Z,81.24
2019-02-25T22:57:16.754Z,81.50
2019-02-25T22:59:44.648Z,81.60
2019-02-25T23:02:11.602Z,81.72
2019-02-25T23:04:38.400Z,81.95
2019-02-25T23:07:09.053Z,82.13
2019-02-25T23:09:39.134Z,82.07
2019-02-25T23:12:03.887Z,82.30
2019-02-25T23:14:31.939Z,82.46
2019-02-25T23:16:59.817Z,82.65
2019-02-25T23:19:27.684Z,82.76
2019-02-25T23:21:54.557Z,82.76
2019-02-25T23:24:21.812Z,82.79
2019-02-25T23:26:49.124Z,83.14
2019-02-25T23:29:17.680Z,83.29
2019-02-25T23:31:46.476Z,83.21
2019-02-25T23:34:15.342Z,83.03
2019-02-25T23:36:44.813Z,82.81
2019-02-25T23:39:10.417Z,82.75
2019-02-25T23:41:38.989Z,82.94
2019-02-25T23:44:08.656Z,82.99
2019-02-25T23:46:35.206Z,82.85
2019-02-25T23:49:02.800Z,82.83
2019-02-25T23:51:29.483Z,82.67
2019-02-25T23:53:57.690Z,82.71
2019-02-25T23:56:25.589Z,82.86
2019-02-25T23:58:54.015Z,82.95
